sensor_id;sensor_type;location;lat;lon;timestamp;temperature;humidity
49413;DHT22;35493;50.276;9.372;2024-03-02T00:01:12;4.80;87.40
49413;DHT22;35493;50.276;9.372;2024-03-02T00:03:39;4.80;87.40
49413;DHT22;35493;50.276;9.372;2024-03-02T00:06:12;4.80;87.30
49413;DHT22;35493;50.276;9.372;2024-03-02T00:08:45;4.80;87.30
49413;DHT22;35493;50.276;9.372;2024-03-02T00:11:18;4.80;87.20
49413;DHT22;35493;50.276;9.372;2024-03-02T00:13:53;4.80;87.20
49413;DHT22;35493;50.276;9.372;2024-03-02T00:16:29;4.70;87.20
49413;DHT22;35493;50.276;9.372;2024-03-02T00:19:03;4.70;87.20
49413;DHT22;35493;50.276;9.372;2024-03-02T00:21:37;4.70;87.20
49413;DHT22;35493;50.276;9.372;2024-03-02T00:24:16;4.70;87.10
49413;DHT22;35493;50.276;9.372;2024-03-02T00:26:51;4.70;87.10
49413;DHT22;35493;50.276;9.372;2024-03-02T00:29:19;4.70;87.10
49413;DHT22;35493;50.276;9.372;2024-03-02T00:31:53;4.80;87.00
49413;DHT22;35493;50.276;9.372;2024-03-02T00:34:27;4.70;87.00
49413;DHT22;35493;50.276;9.372;2024-03-02T00:37:07;4.70;87.20
49413;DHT22;35493;50.276;9.372;2024-03-02T00:39:41;4.60;87.20
49413;DHT22;35493;50.276;9.372;2024-03-02T00:42:15;4.60;87.40
49413;DHT22;35493;50.276;9.372;2024-03-02T00:44:49;4.60;87.30
49413;DHT22;35493;50.276;9.372;2024-03-02T00:47:23;4.60;87.30
49413;DHT22;35493;50.276;9.372;2024-03-02T00:49:56;4.70;87.20
49413;DHT22;35493;50.276;9.372;2024-03-02T00:52:29;4.70;87.20
49413;DHT22;35493;50.276;9.372;2024-03-02T00:55:04;4.70;87.00
49413;DHT22;35493;50.276;9.372;2024-03-02T00:57:38;4.60;87.10
49413;DHT22;35493;50.276;9.372;2024-03-02T01:00:14;4.60;87.00
49413;DHT22;35493;50.276;9.372;2024-03-02T01:02:55;4.60;87.00
49413;DHT22;35493;50.276;9.372;2024-03-02T01:05:28;4.60;87.00
49413;DHT22;35493;50.276;9.372;2024-03-02T01:08:01;4.60;87.00
49413;DHT22;35493;50.276;9.372;2024-03-02T01:10:41;4.60;87.00
49413;DHT22;35493;50.276;9.372;2024-03-02T01:13:14;4.50;86.90
49413;DHT22;35493;50.276;9.372;2024-03-02T01:15:48;4.60;86.90
49413;DHT22;35493;50.276;9.372;2024-03-02T01:18:22;4.50;87.00
49413;DHT22;35493;50.276;9.372;2024-03-02T01:20:55;4.60;87.00
49413;DHT22;35493;50.276;9.372;2024-03-02T01:23:28;4.50;87.00
49413;DHT22;35493;50.276;9.372;2024-03-02T01:26:01;4.50;87.00
49413;DHT22;35493;50.276;9.372;2024-03-02T01:28:34;4.50;87.00
49413;DHT22;35493;50.276;9.372;2024-03-02T01:31:08;4.50;87.00
49413;DHT22;35493;50.276;9.372;2024-03-02T01:33:42;4.50;87.10
49413;DHT22;35493;50.276;9.372;2024-03-02T01:36:15;4.40;87.00
49413;DHT22;35493;50.276;9.372;2024-03-02T01:38:48;4.40;86.90
49413;DHT22;35493;50.276;9.372;2024-03-02T01:41:22;4.40;87.00
49413;DHT22;35493;50.276;9.372;2024-03-02T01:43:55;4.40;86.90
49413;DHT22;35493;50.276;9.372;2024-03-02T01:46:29;4.40;86.90
49413;DHT22;35493;50.276;9.372;2024-03-02T01:49:03;4.40;86.90
49413;DHT22;35493;50.276;9.372;2024-03-02T01:51:36;4.40;87.10
49413;DHT22;35493;50.276;9.372;2024-03-02T01:54:09;4.40;87.00
49413;DHT22;35493;50.276;9.372;2024-03-02T01:56:42;4.30;87.00
49413;DHT22;35493;50.276;9.372;2024-03-02T01:59:16;4.30;87.10
49413;DHT22;35493;50.276;9.372;2024-03-02T02:01:50;4.30;87.00
49413;DHT22;35493;50.276;9.372;2024-03-02T02:04:24;4.30;87.00
49413;DHT22;35493;50.276;9.372;2024-03-02T02:06:59;4.30;86.90
49413;DHT22;35493;50.276;9.372;2024-03-02T02:09:32;4.30;86.90
49413;DHT22;35493;50.276;9.372;2024-03-02T02:12:05;4.30;87.00
49413;DHT22;35493;50.276;9.372;2024-03-02T02:14:39;4.30;86.90
49413;DHT22;35493;50.276;9.372;2024-03-02T02:17:20;4.30;86.90
49413;DHT22;35493;50.276;9.372;2024-03-02T02:19:54;4.30;87.00
49413;DHT22;35493;50.276;9.372;2024-03-02T02:22:28;4.30;87.00
49413;DHT22;35493;50.276;9.372;2024-03-02T02:25:02;4.30;86.90
49413;DHT22;35493;50.276;9.372;2024-03-02T02:34:45;4.20;87.10
49413;DHT22;35493;50.276;9.372;2024-03-02T02:37:18;4.20;87.00
49413;DHT22;35493;50.276;9.372;2024-03-02T02:39:52;4.20;87.00
49413;DHT22;35493;50.276;9.372;2024-03-02T02:42:26;4.20;87.00
49413;DHT22;35493;50.276;9.372;2024-03-02T02:44:59;4.20;87.10
49413;DHT22;35493;50.276;9.372;2024-03-02T02:47:32;4.20;87.00
49413;DHT22;35493;50.276;9.372;2024-03-02T02:50:07;4.20;87.00
49413;DHT22;35493;50.276;9.372;2024-03-02T02:52:41;4.20;87.00
49413;DHT22;35493;50.276;9.372;2024-03-02T02:55:16;4.20;87.00
49413;DHT22;35493;50.276;9.372;2024-03-02T02:57:50;4.10;87.00
49413;DHT22;35493;50.276;9.372;2024-03-02T03:00:32;4.10;87.00
49413;DHT22;35493;50.276;9.372;2024-03-02T03:03:08;4.20;86.90
49413;DHT22;35493;50.276;9.372;2024-03-02T03:05:41;4.10;87.00
49413;DHT22;35493;50.276;9.372;2024-03-02T03:08:14;4.20;87.00
49413;DHT22;35493;50.276;9.372;2024-03-02T03:10:49;4.20;86.90
49413;DHT22;35493;50.276;9.372;2024-03-02T03:13:16;4.20;86.90
49413;DHT22;35493;50.276;9.372;2024-03-02T03:15:49;4.20;86.90
49413;DHT22;35493;50.276;9.372;2024-03-02T03:18:22;4.20;86.90
49413;DHT22;35493;50.276;9.372;2024-03-02T03:20:55;4.20;87.10
49413;DHT22;35493;50.276;9.372;2024-03-02T03:23:28;4.20;87.20
49413;DHT22;35493;50.276;9.372;2024-03-02T03:26:02;4.20;87.20
49413;DHT22;35493;50.276;9.372;2024-03-02T03:28:30;4.20;87.40
49413;DHT22;35493;50.276;9.372;2024-03-02T03:31:03;4.20;87.40
49413;DHT22;35493;50.276;9.372;2024-03-02T03:33:36;4.20;87.20
49413;DHT22;35493;50.276;9.372;2024-03-02T03:36:09;4.20;87.30
49413;DHT22;35493;50.276;9.372;2024-03-02T03:38:42;4.10;87.20
49413;DHT22;35493;50.276;9.372;2024-03-02T03:41:16;4.10;87.10
49413;DHT22;35493;50.276;9.372;2024-03-02T03:43:50;4.00;87.10
49413;DHT22;35493;50.276;9.372;2024-03-02T03:46:24;4.00;87.00
49413;DHT22;35493;50.276;9.372;2024-03-02T03:48:57;4.00;86.90
49413;DHT22;35493;50.276;9.372;2024-03-02T03:51:30;4.00;86.90
49413;DHT22;35493;50.276;9.372;2024-03-02T03:54:03;4.00;86.90
49413;DHT22;35493;50.276;9.372;2024-03-02T03:56:44;4.00;86.80
49413;DHT22;35493;50.276;9.372;2024-03-02T03:59:18;3.90;86.90
49413;DHT22;35493;50.276;9.372;2024-03-02T04:01:51;3.90;86.80
49413;DHT22;35493;50.276;9.372;2024-03-02T04:04:25;3.80;86.70
49413;DHT22;35493;50.276;9.372;2024-03-02T04:06:58;3.80;86.60
49413;DHT22;35493;50.276;9.372;2024-03-02T04:09:31;3.80;86.60
49413;DHT22;35493;50.276;9.372;2024-03-02T04:12:05;3.80;86.50
49413;DHT22;35493;50.276;9.372;2024-03-02T04:14:39;3.70;86.60
49413;DHT22;35493;50.276;9.372;2024-03-02T04:17:14;3.70;86.70
49413;DHT22;35493;50.276;9.372;2024-03-02T04:19:47;3.70;86.60
49413;DHT22;35493;50.276;9.372;2024-03-02T04:22:20;3.70;86.60
49413;DHT22;35493;50.276;9.372;2024-03-02T04:24:53;3.70;86.60
49413;DHT22;35493;50.276;9.372;2024-03-02T04:27:27;3.70;86.50
49413;DHT22;35493;50.276;9.372;2024-03-02T04:30:04;3.60;86.60
49413;DHT22;35493;50.276;9.372;2024-03-02T04:32:41;3.60;86.70
49413;DHT22;35493;50.276;9.372;2024-03-02T04:35:18;3.60;86.70
49413;DHT22;35493;50.276;9.372;2024-03-02T04:37:51;3.60;86.70
49413;DHT22;35493;50.276;9.372;2024-03-02T04:40:24;3.60;86.60
49413;DHT22;35493;50.276;9.372;2024-03-02T04:42:58;3.70;86.50
49413;DHT22;35493;50.276;9.372;2024-03-02T04:45:32;3.60;86.50
49413;DHT22;35493;50.276;9.372;2024-03-02T04:48:05;3.50;86.60
49413;DHT22;35493;50.276;9.372;2024-03-02T04:50:39;3.50;86.60
49413;DHT22;35493;50.276;9.372;2024-03-02T04:53:12;3.50;86.70
49413;DHT22;35493;50.276;9.372;2024-03-02T04:55:45;3.50;86.60
49413;DHT22;35493;50.276;9.372;2024-03-02T04:58:42;3.50;86.90
49413;DHT22;35493;50.276;9.372;2024-03-02T05:01:16;3.50;86.80
49413;DHT22;35493;50.276;9.372;2024-03-02T05:03:49;3.40;86.60
49413;DHT22;35493;50.276;9.372;2024-03-02T05:06:22;3.50;86.70
49413;DHT22;35493;50.276;9.372;2024-03-02T05:08:55;3.50;86.50
49413;DHT22;35493;50.276;9.372;2024-03-02T05:11:29;3.40;86.80
49413;DHT22;35493;50.276;9.372;2024-03-02T05:14:23;3.40;86.90
49413;DHT22;35493;50.276;9.372;2024-03-02T05:16:50;3.60;86.90
49413;DHT22;35493;50.276;9.372;2024-03-02T05:19:23;3.60;87.00
49413;DHT22;35493;50.276;9.372;2024-03-02T05:21:57;3.60;87.10
49413;DHT22;35493;50.276;9.372;2024-03-02T05:24:30;3.60;87.30
49413;DHT22;35493;50.276;9.372;2024-03-02T05:27:03;3.60;87.50
49413;DHT22;35493;50.276;9.372;2024-03-02T05:29:39;3.60;87.50
49413;DHT22;35493;50.276;9.372;2024-03-02T05:32:13;3.70;87.40
49413;DHT22;35493;50.276;9.372;2024-03-02T05:34:40;3.70;87.30
49413;DHT22;35493;50.276;9.372;2024-03-02T05:37:13;3.60;87.50
49413;DHT22;35493;50.276;9.372;2024-03-02T05:39:53;3.70;87.50
49413;DHT22;35493;50.276;9.372;2024-03-02T05:42:26;3.60;87.40
49413;DHT22;35493;50.276;9.372;2024-03-02T05:45:00;3.60;87.40
49413;DHT22;35493;50.276;9.372;2024-03-02T05:47:34;3.60;87.50
49413;DHT22;35493;50.276;9.372;2024-03-02T05:50:07;3.60;88.00
49413;DHT22;35493;50.276;9.372;2024-03-02T05:52:40;3.60;87.90
49413;DHT22;35493;50.276;9.372;2024-03-02T05:55:13;3.60;87.80
49413;DHT22;35493;50.276;9.372;2024-03-02T05:57:47;3.60;87.80
49413;DHT22;35493;50.276;9.372;2024-03-02T06:00:35;3.60;87.80
49413;DHT22;35493;50.276;9.372;2024-03-02T06:03:09;3.60;87.80
49413;DHT22;35493;50.276;9.372;2024-03-02T06:05:42;3.60;87.90
49413;DHT22;35493;50.276;9.372;2024-03-02T06:08:15;3.60;87.90
49413;DHT22;35493;50.276;9.372;2024-03-02T06:10:49;3.50;87.70
49413;DHT22;35493;50.276;9.372;2024-03-02T06:13:16;3.60;88.20
49413;DHT22;35493;50.276;9.372;2024-03-02T06:15:50;3.60;88.20
49413;DHT22;35493;50.276;9.372;2024-03-02T06:18:24;3.60;88.10
49413;DHT22;35493;50.276;9.372;2024-03-02T06:20:57;3.60;88.20
49413;DHT22;35493;50.276;9.372;2024-03-02T06:23:30;3.60;88.30
49413;DHT22;35493;50.276;9.372;2024-03-02T06:26:04;3.70;88.10
49413;DHT22;35493;50.276;9.372;2024-03-02T06:28:37;3.70;88.20
49413;DHT22;35493;50.276;9.372;2024-03-02T06:31:11;3.70;88.20
49413;DHT22;35493;50.276;9.372;2024-03-02T06:33:45;3.70;88.10
49413;DHT22;35493;50.276;9.372;2024-03-02T06:36:18;3.80;88.10
49413;DHT22;35493;50.276;9.372;2024-03-02T06:38:51;3.70;88.10
49413;DHT22;35493;50.276;9.372;2024-03-02T06:41:24;3.70;88.30
49413;DHT22;35493;50.276;9.372;2024-03-02T06:43:58;3.70;88.00
49413;DHT22;35493;50.276;9.372;2024-03-02T06:46:27;3.70;88.10
49413;DHT22;35493;50.276;9.372;2024-03-02T06:49:01;3.70;88.30
49413;DHT22;35493;50.276;9.372;2024-03-02T06:51:35;3.70;88.30
49413;DHT22;35493;50.276;9.372;2024-03-02T06:54:02;3.70;88.20
49413;DHT22;35493;50.276;9.372;2024-03-02T06:56:35;3.80;88.20
49413;DHT22;35493;50.276;9.372;2024-03-02T06:59:09;3.70;88.20
49413;DHT22;35493;50.276;9.372;2024-03-02T07:01:50;3.80;88.10
49413;DHT22;35493;50.276;9.372;2024-03-02T07:04:24;3.80;88.10
49413;DHT22;35493;50.276;9.372;2024-03-02T07:06:57;3.80;88.20
49413;DHT22;35493;50.276;9.372;2024-03-02T07:09:30;3.80;88.10
49413;DHT22;35493;50.276;9.372;2024-03-02T07:12:03;3.80;88.00
49413;DHT22;35493;50.276;9.372;2024-03-02T07:14:37;3.90;87.90
49413;DHT22;35493;50.276;9.372;2024-03-02T07:17:25;3.90;87.80
49413;DHT22;35493;50.276;9.372;2024-03-02T07:19:59;3.80;87.80
49413;DHT22;35493;50.276;9.372;2024-03-02T07:22:32;3.90;87.80
49413;DHT22;35493;50.276;9.372;2024-03-02T07:24:59;4.00;87.70
49413;DHT22;35493;50.276;9.372;2024-03-02T07:27:32;4.00;87.90
49413;DHT22;35493;50.276;9.372;2024-03-02T07:30:07;4.00;87.70
49413;DHT22;35493;50.276;9.372;2024-03-02T07:32:42;4.10;87.70
49413;DHT22;35493;50.276;9.372;2024-03-02T07:35:17;4.20;87.90
49413;DHT22;35493;50.276;9.372;2024-03-02T07:37:51;4.10;87.90
49413;DHT22;35493;50.276;9.372;2024-03-02T07:40:24;4.20;87.90
49413;DHT22;35493;50.276;9.372;2024-03-02T07:42:58;4.20;87.90
49413;DHT22;35493;50.276;9.372;2024-03-02T07:45:31;4.20;88.00
49413;DHT22;35493;50.276;9.372;2024-03-02T07:48:06;4.20;88.30
49413;DHT22;35493;50.276;9.372;2024-03-02T07:50:39;4.10;88.60
49413;DHT22;35493;50.276;9.372;2024-03-02T07:53:12;4.20;88.40
49413;DHT22;35493;50.276;9.372;2024-03-02T07:55:46;4.20;88.40
49413;DHT22;35493;50.276;9.372;2024-03-02T07:58:19;4.30;88.60
49413;DHT22;35493;50.276;9.372;2024-03-02T08:00:53;4.40;88.80
49413;DHT22;35493;50.276;9.372;2024-03-02T08:03:27;4.60;88.80
49413;DHT22;35493;50.276;9.372;2024-03-02T08:06:01;4.50;88.50
49413;DHT22;35493;50.276;9.372;2024-03-02T08:08:34;4.70;89.40
49413;DHT22;35493;50.276;9.372;2024-03-02T08:11:07;4.70;88.60
49413;DHT22;35493;50.276;9.372;2024-03-02T08:13:40;4.80;89.80
49413;DHT22;35493;50.276;9.372;2024-03-02T08:16:07;5.00;89.80
49413;DHT22;35493;50.276;9.372;2024-03-02T08:18:43;5.10;89.60
49413;DHT22;35493;50.276;9.372;2024-03-02T08:21:16;5.20;89.60
49413;DHT22;35493;50.276;9.372;2024-03-02T08:23:49;5.40;89.80
49413;DHT22;35493;50.276;9.372;2024-03-02T08:26:23;5.40;90.10
49413;DHT22;35493;50.276;9.372;2024-03-02T08:28:56;5.50;90.00
49413;DHT22;35493;50.276;9.372;2024-03-02T08:31:29;5.50;89.90
49413;DHT22;35493;50.276;9.372;2024-03-02T08:34:03;5.60;90.00
49413;DHT22;35493;50.276;9.372;2024-03-02T08:36:37;5.70;90.00
49413;DHT22;35493;50.276;9.372;2024-03-02T08:39:04;5.70;90.10
49413;DHT22;35493;50.276;9.372;2024-03-02T08:41:46;5.80;90.00
49413;DHT22;35493;50.276;9.372;2024-03-02T08:44:20;5.90;90.10
49413;DHT22;35493;50.276;9.372;2024-03-02T08:47:00;6.00;89.90
49413;DHT22;35493;50.276;9.372;2024-03-02T08:49:35;6.00;89.40
49413;DHT22;35493;50.276;9.372;2024-03-02T08:52:08;6.10;90.40
49413;DHT22;35493;50.276;9.372;2024-03-02T08:54:41;6.30;90.30
49413;DHT22;35493;50.276;9.372;2024-03-02T08:57:14;6.30;90.00
49413;DHT22;35493;50.276;9.372;2024-03-02T09:00:10;6.50;90.10
49413;DHT22;35493;50.276;9.372;2024-03-02T09:02:52;6.70;90.40
49413;DHT22;35493;50.276;9.372;2024-03-02T09:05:27;6.80;90.10
49413;DHT22;35493;50.276;9.372;2024-03-02T09:08:00;7.10;90.30
49413;DHT22;35493;50.276;9.372;2024-03-02T09:10:35;7.30;89.50
49413;DHT22;35493;50.276;9.372;2024-03-02T09:13:10;7.50;89.50
49413;DHT22;35493;50.276;9.372;2024-03-02T09:15:43;7.70;89.60
49413;DHT22;35493;50.276;9.372;2024-03-02T09:18:16;7.90;89.20
49413;DHT22;35493;50.276;9.372;2024-03-02T09:20:52;8.00;89.00
49413;DHT22;35493;50.276;9.372;2024-03-02T09:23:25;8.20;88.80
49413;DHT22;35493;50.276;9.372;2024-03-02T09:25:58;8.30;88.80
49413;DHT22;35493;50.276;9.372;2024-03-02T09:28:31;8.40;88.20
49413;DHT22;35493;50.276;9.372;2024-03-02T09:31:04;8.50;88.10
49413;DHT22;35493;50.276;9.372;2024-03-02T09:33:37;8.60;88.00
49413;DHT22;35493;50.276;9.372;2024-03-02T09:36:19;8.70;87.70
49413;DHT22;35493;50.276;9.372;2024-03-02T09:38:52;8.70;87.70
49413;DHT22;35493;50.276;9.372;2024-03-02T09:41:25;8.80;87.40
49413;DHT22;35493;50.276;9.372;2024-03-02T09:43:58;8.80;87.10
49413;DHT22;35493;50.276;9.372;2024-03-02T09:46:32;8.90;87.00
49413;DHT22;35493;50.276;9.372;2024-03-02T09:49:07;8.90;86.80
49413;DHT22;35493;50.276;9.372;2024-03-02T09:51:35;8.90;86.50
49413;DHT22;35493;50.276;9.372;2024-03-02T09:54:09;9.00;86.60
49413;DHT22;35493;50.276;9.372;2024-03-02T09:56:42;9.10;86.40
49413;DHT22;35493;50.276;9.372;2024-03-02T09:59:15;9.20;86.40
49413;DHT22;35493;50.276;9.372;2024-03-02T10:01:55;9.20;86.10
49413;DHT22;35493;50.276;9.372;2024-03-02T10:04:29;9.40;85.40
49413;DHT22;35493;50.276;9.372;2024-03-02T10:07:11;9.60;84.80
49413;DHT22;35493;50.276;9.372;2024-03-02T10:09:45;9.80;84.40
49413;DHT22;35493;50.276;9.372;2024-03-02T10:12:19;10.00;83.40
49413;DHT22;35493;50.276;9.372;2024-03-02T10:15:02;10.10;82.90
49413;DHT22;35493;50.276;9.372;2024-03-02T10:17:36;10.10;83.30
49413;DHT22;35493;50.276;9.372;2024-03-02T10:20:23;10.20;83.00
49413;DHT22;35493;50.276;9.372;2024-03-02T10:23:00;10.20;82.90
49413;DHT22;35493;50.276;9.372;2024-03-02T10:25:42;10.30;82.60
49413;DHT22;35493;50.276;9.372;2024-03-02T10:28:17;10.50;81.80
49413;DHT22;35493;50.276;9.372;2024-03-02T10:30:50;10.70;81.20
49413;DHT22;35493;50.276;9.372;2024-03-02T10:33:24;10.90;80.60
49413;DHT22;35493;50.276;9.372;2024-03-02T10:35:57;11.00;79.90
49413;DHT22;35493;50.276;9.372;2024-03-02T10:38:32;11.20;79.30
49413;DHT22;35493;50.276;9.372;2024-03-02T10:41:05;11.30;79.10
49413;DHT22;35493;50.276;9.372;2024-03-02T10:43:47;11.50;78.70
49413;DHT22;35493;50.276;9.372;2024-03-02T10:46:20;11.60;77.90
49413;DHT22;35493;50.276;9.372;2024-03-02T10:48:53;11.60;77.50
49413;DHT22;35493;50.276;9.372;2024-03-02T10:51:27;11.70;77.30
49413;DHT22;35493;50.276;9.372;2024-03-02T10:54:05;11.90;77.50
49413;DHT22;35493;50.276;9.372;2024-03-02T10:56:39;12.00;77.20
49413;DHT22;35493;50.276;9.372;2024-03-02T10:59:15;12.10;76.20
49413;DHT22;35493;50.276;9.372;2024-03-02T11:01:50;12.10;76.30
49413;DHT22;35493;50.276;9.372;2024-03-02T11:04:24;12.20;76.20
49413;DHT22;35493;50.276;9.372;2024-03-02T11:06:59;12.20;75.80
49413;DHT22;35493;50.276;9.372;2024-03-02T11:09:34;12.30;76.30
49413;DHT22;35493;50.276;9.372;2024-03-02T11:12:09;12.40;75.70
49413;DHT22;35493;50.276;9.372;2024-03-02T11:14:45;12.50;75.40
49413;DHT22;35493;50.276;9.372;2024-03-02T11:17:18;12.50;74.50
49413;DHT22;35493;50.276;9.372;2024-03-02T11:19:52;12.50;74.20
49413;DHT22;35493;50.276;9.372;2024-03-02T11:22:25;12.20;75.10
49413;DHT22;35493;50.276;9.372;2024-03-02T11:25:01;12.40;74.70
49413;DHT22;35493;50.276;9.372;2024-03-02T11:33:24;12.60;73.50
49413;DHT22;35493;50.276;9.372;2024-03-02T11:36:03;12.40;73.70
49413;DHT22;35493;50.276;9.372;2024-03-02T11:38:38;12.20;74.40
49413;DHT22;35493;50.276;9.372;2024-03-02T11:41:13;12.20;74.40
49413;DHT22;35493;50.276;9.372;2024-03-02T11:43:46;12.20;74.50
49413;DHT22;35493;50.276;9.372;2024-03-02T11:46:21;12.40;74.40
49413;DHT22;35493;50.276;9.372;2024-03-02T11:48:55;12.30;74.40
49413;DHT22;35493;50.276;9.372;2024-03-02T11:51:28;12.30;74.30
49413;DHT22;35493;50.276;9.372;2024-03-02T11:54:01;12.30;74.30
49413;DHT22;35493;50.276;9.372;2024-03-02T11:56:37;12.20;74.30
49413;DHT22;35493;50.276;9.372;2024-03-02T11:59:10;12.30;73.40
49413;DHT22;35493;50.276;9.372;2024-03-02T12:01:44;12.30;73.70
49413;DHT22;35493;50.276;9.372;2024-03-02T12:04:26;12.30;73.60
49413;DHT22;35493;50.276;9.372;2024-03-02T12:07:13;12.20;74.10
49413;DHT22;35493;50.276;9.372;2024-03-02T12:09:59;12.20;73.20
49413;DHT22;35493;50.276;9.372;2024-03-02T12:12:34;12.20;73.50
49413;DHT22;35493;50.276;9.372;2024-03-02T12:15:00;12.20;73.70
49413;DHT22;35493;50.276;9.372;2024-03-02T12:17:34;12.20;73.50
49413;DHT22;35493;50.276;9.372;2024-03-02T12:20:09;12.20;73.80
49413;DHT22;35493;50.276;9.372;2024-03-02T12:22:44;12.20;74.00
49413;DHT22;35493;50.276;9.372;2024-03-02T12:25:17;12.20;74.30
49413;DHT22;35493;50.276;9.372;2024-03-02T12:27:52;12.20;74.20
49413;DHT22;35493;50.276;9.372;2024-03-02T12:30:27;12.20;74.20
49413;DHT22;35493;50.276;9.372;2024-03-02T12:33:01;12.20;74.50
49413;DHT22;35493;50.276;9.372;2024-03-02T12:35:35;12.20;74.20
49413;DHT22;35493;50.276;9.372;2024-03-02T12:38:08;12.30;74.00
49413;DHT22;35493;50.276;9.372;2024-03-02T12:40:42;12.20;74.60
49413;DHT22;35493;50.276;9.372;2024-03-02T12:43:17;12.20;74.20
49413;DHT22;35493;50.276;9.372;2024-03-02T12:45:50;12.20;74.30
49413;DHT22;35493;50.276;9.372;2024-03-02T12:48:23;12.20;75.60
49413;DHT22;35493;50.276;9.372;2024-03-02T12:50:57;12.20;73.60
49413;DHT22;35493;50.276;9.372;2024-03-02T12:53:30;12.20;73.50
49413;DHT22;35493;50.276;9.372;2024-03-02T12:56:04;12.20;73.70
49413;DHT22;35493;50.276;9.372;2024-03-02T12:58:40;12.10;74.30
49413;DHT22;35493;50.276;9.372;2024-03-02T13:01:19;12.20;74.10
49413;DHT22;35493;50.276;9.372;2024-03-02T13:03:52;12.20;74.30
49413;DHT22;35493;50.276;9.372;2024-03-02T13:06:26;12.20;73.40
49413;DHT22;35493;50.276;9.372;2024-03-02T13:09:00;12.20;73.30
49413;DHT22;35493;50.276;9.372;2024-03-02T13:11:27;12.20;74.50
49413;DHT22;35493;50.276;9.372;2024-03-02T13:14:02;12.10;73.40
49413;DHT22;35493;50.276;9.372;2024-03-02T13:16:38;12.20;74.40
49413;DHT22;35493;50.276;9.372;2024-03-02T13:19:11;12.10;74.00
49413;DHT22;35493;50.276;9.372;2024-03-02T13:21:44;12.10;73.70
49413;DHT22;35493;50.276;9.372;2024-03-02T13:24:18;12.10;74.70
49413;DHT22;35493;50.276;9.372;2024-03-02T13:26:52;12.10;73.90
49413;DHT22;35493;50.276;9.372;2024-03-02T13:29:29;12.00;74.30
49413;DHT22;35493;50.276;9.372;2024-03-02T13:32:03;12.00;73.50
49413;DHT22;35493;50.276;9.372;2024-03-02T13:34:36;12.00;74.20
49413;DHT22;35493;50.276;9.372;2024-03-02T13:37:09;12.00;73.70
49413;DHT22;35493;50.276;9.372;2024-03-02T13:39:42;11.90;74.00
49413;DHT22;35493;50.276;9.372;2024-03-02T13:42:15;11.90;73.60
49413;DHT22;35493;50.276;9.372;2024-03-02T13:44:51;12.00;73.80
49413;DHT22;35493;50.276;9.372;2024-03-02T13:47:18;11.90;73.50
49413;DHT22;35493;50.276;9.372;2024-03-02T13:49:50;11.90;72.90
49413;DHT22;35493;50.276;9.372;2024-03-02T13:52:23;11.90;74.40
49413;DHT22;35493;50.276;9.372;2024-03-02T13:54:52;11.90;73.50
49413;DHT22;35493;50.276;9.372;2024-03-02T13:57:25;11.90;73.90
49413;DHT22;35493;50.276;9.372;2024-03-02T14:00:00;11.90;73.30
49413;DHT22;35493;50.276;9.372;2024-03-02T14:02:37;11.80;73.40
49413;DHT22;35493;50.276;9.372;2024-03-02T14:05:10;11.80;73.70
49413;DHT22;35493;50.276;9.372;2024-03-02T14:07:45;11.80;73.00
49413;DHT22;35493;50.276;9.372;2024-03-02T14:10:18;11.80;74.30
49413;DHT22;35493;50.276;9.372;2024-03-02T14:12:53;11.90;74.00
49413;DHT22;35493;50.276;9.372;2024-03-02T14:15:29;11.90;73.00
49413;DHT22;35493;50.276;9.372;2024-03-02T14:18:04;11.90;72.00
49413;DHT22;35493;50.276;9.372;2024-03-02T14:20:37;11.90;72.90
49413;DHT22;35493;50.276;9.372;2024-03-02T14:23:10;11.90;72.90
49413;DHT22;35493;50.276;9.372;2024-03-02T14:25:37;11.80;72.90
49413;DHT22;35493;50.276;9.372;2024-03-02T14:28:10;11.80;73.30
49413;DHT22;35493;50.276;9.372;2024-03-02T14:30:46;11.80;72.70
49413;DHT22;35493;50.276;9.372;2024-03-02T14:33:19;11.80;73.70
49413;DHT22;35493;50.276;9.372;2024-03-02T14:35:46;11.80;73.70
49413;DHT22;35493;50.276;9.372;2024-03-02T14:38:19;11.80;73.70
49413;DHT22;35493;50.276;9.372;2024-03-02T14:40:52;11.70;74.10
49413;DHT22;35493;50.276;9.372;2024-03-02T14:43:25;11.80;73.70
49413;DHT22;35493;50.276;9.372;2024-03-02T14:46:00;11.70;73.70
49413;DHT22;35493;50.276;9.372;2024-03-02T14:48:33;11.80;74.50
49413;DHT22;35493;50.276;9.372;2024-03-02T14:51:07;11.80;74.90
49413;DHT22;35493;50.276;9.372;2024-03-02T14:53:40;11.80;74.20
49413;DHT22;35493;50.276;9.372;2024-03-02T14:56:13;11.80;73.90
49413;DHT22;35493;50.276;9.372;2024-03-02T14:58:46;11.80;74.10
49413;DHT22;35493;50.276;9.372;2024-03-02T15:01:21;11.80;74.60
49413;DHT22;35493;50.276;9.372;2024-03-02T15:03:54;11.80;74.20
49413;DHT22;35493;50.276;9.372;2024-03-02T15:06:27;11.80;75.10
49413;DHT22;35493;50.276;9.372;2024-03-02T15:08:54;11.80;74.60
49413;DHT22;35493;50.276;9.372;2024-03-02T15:11:27;11.80;74.70
49413;DHT22;35493;50.276;9.372;2024-03-02T15:14:01;11.80;74.70
49413;DHT22;35493;50.276;9.372;2024-03-02T15:16:36;11.90;74.10
49413;DHT22;35493;50.276;9.372;2024-03-02T15:19:03;11.80;73.50
49413;DHT22;35493;50.276;9.372;2024-03-02T15:21:36;11.80;74.30
49413;DHT22;35493;50.276;9.372;2024-03-02T15:24:09;11.80;74.30
49413;DHT22;35493;50.276;9.372;2024-03-02T15:26:42;11.80;74.00
49413;DHT22;35493;50.276;9.372;2024-03-02T15:29:15;11.80;74.50
49413;DHT22;35493;50.276;9.372;2024-03-02T15:31:50;11.80;74.60
49413;DHT22;35493;50.276;9.372;2024-03-02T15:34:23;11.70;74.70
49413;DHT22;35493;50.276;9.372;2024-03-02T15:36:56;11.70;75.20
49413;DHT22;35493;50.276;9.372;2024-03-02T15:39:29;11.70;74.90
49413;DHT22;35493;50.276;9.372;2024-03-02T15:42:03;11.70;74.20
49413;DHT22;35493;50.276;9.372;2024-03-02T15:44:36;11.70;74.10
49413;DHT22;35493;50.276;9.372;2024-03-02T15:47:11;11.70;74.30
49413;DHT22;35493;50.276;9.372;2024-03-02T15:49:44;11.70;74.70
49413;DHT22;35493;50.276;9.372;2024-03-02T15:52:11;11.70;74.00
49413;DHT22;35493;50.276;9.372;2024-03-02T15:54:47;11.70;74.10
49413;DHT22;35493;50.276;9.372;2024-03-02T15:57:21;11.60;75.30
49413;DHT22;35493;50.276;9.372;2024-03-02T15:59:49;11.60;74.80
49413;DHT22;35493;50.276;9.372;2024-03-02T16:02:24;11.50;73.70
49413;DHT22;35493;50.276;9.372;2024-03-02T16:04:57;11.50;74.60
49413;DHT22;35493;50.276;9.372;2024-03-02T16:07:30;11.40;73.70
49413;DHT22;35493;50.276;9.372;2024-03-02T16:10:05;11.40;73.70
49413;DHT22;35493;50.276;9.372;2024-03-02T16:12:39;11.40;74.00
49413;DHT22;35493;50.276;9.372;2024-03-02T16:15:12;11.30;73.90
49413;DHT22;35493;50.276;9.372;2024-03-02T16:17:48;11.30;74.00
49413;DHT22;35493;50.276;9.372;2024-03-02T16:20:21;11.30;74.50
49413;DHT22;35493;50.276;9.372;2024-03-02T16:22:48;11.30;74.30
49413;DHT22;35493;50.276;9.372;2024-03-02T16:25:21;11.20;74.10
49413;DHT22;35493;50.276;9.372;2024-03-02T16:27:56;11.20;74.90
49413;DHT22;35493;50.276;9.372;2024-03-02T16:30:30;11.10;74.30
49413;DHT22;35493;50.276;9.372;2024-03-02T16:33:05;11.10;74.80
49413;DHT22;35493;50.276;9.372;2024-03-02T16:35:38;11.10;74.90